Time;durP1;ratioP1;P1;durP2;ratioP2;P2;SDS_P1;SDS_P2;PMS_P1;PMS_P2;Temp;Humidity;BMP_temperature;BMP_pressure;BME280_temperature;BME280_humidity;BME280_pressure;Samples;Min_cycle;Max_cycle;Signal;HPM_P1;HPM_P2
2022/10/14 00:00:37;;;;;;;56.30;23.80;;;12.20;99.90;;;;;;7406460;19;19926;-84
2022/10/14 00:03:03;;;;;;;66.65;25.50;;;12.20;99.90;;;;;;7405619;19;20023;-84
2022/10/14 00:05:29;;;;;;;52.47;20.83;;;12.20;99.90;;;;;;7405843;19;19922;-84
2022/10/14 00:07:55;;;;;;;60.90;25.50;;;12.20;99.90;;;;;;7404966;19;19922;-85
2022/10/14 00:10:21;;;;;;;62.60;23.45;;;12.20;99.90;;;;;;7408531;19;19968;-85
2022/10/14 00:12:47;;;;;;;61.88;24.42;;;12.20;99.90;;;;;;7404831;19;19933;-84
2022/10/14 00:15:13;;;;;;;62.30;26.50;;;12.20;99.90;;;;;;7400714;19;20287;-84
2022/10/14 00:17:39;;;;;;;65.75;25.27;;;12.20;99.90;;;;;;7404572;19;19926;-84
2022/10/14 00:20:05;;;;;;;62.65;23.65;;;12.20;99.90;;;;;;7408928;19;19914;-85
2022/10/14 00:22:31;;;;;;;50.63;23.05;;;12.20;99.90;;;;;;7406879;19;19939;-84
2022/10/14 00:24:57;;;;;;;64.22;24.88;;;12.20;99.90;;;;;;7401629;19;19934;-84
2022/10/14 00:27:23;;;;;;;73.25;26.05;;;12.20;99.90;;;;;;7401175;19;19923;-85
2022/10/14 00:29:49;;;;;;;60.15;25.33;;;12.20;99.90;;;;;;7409186;19;19922;-85
2022/10/14 00:32:15;;;;;;;68.30;24.88;;;12.20;99.90;;;;;;7406879;19;19923;-84
2022/10/14 00:34:41;;;;;;;64.55;24.73;;;12.20;99.90;;;;;;7403746;19;19922;-85
2022/10/14 00:37:08;;;;;;;61.72;25.70;;;12.20;99.90;;;;;;7406107;19;20276;-84
2022/10/14 00:39:34;;;;;;;45.85;21.10;;;12.20;99.90;;;;;;7405382;19;19922;-85
2022/10/14 00:42:00;;;;;;;46.53;20.60;;;12.20;99.90;;;;;;7407090;19;19922;-84
2022/10/14 00:44:27;;;;;;;87.07;26.75;;;12.20;99.90;;;;;;7402474;19;19926;-84
2022/10/14 00:46:54;;;;;;;61.75;23.67;;;12.20;99.90;;;;;;7404861;19;20364;-85
2022/10/14 00:49:39;;;;;;;41.63;17.55;;;12.20;99.90;;;;;;7405970;19;19926;-85
2022/10/14 00:52:12;;;;;;;39.03;18.27;;;12.30;99.90;;;;;;7406093;19;19927;-84
2022/10/14 00:54:44;;;;;;;50.58;21.25;;;12.30;99.90;;;;;;7405712;19;19917;-85
2022/10/14 00:57:10;;;;;;;71.30;27.83;;;12.40;99.90;;;;;;7405234;19;19978;-85
2022/10/14 00:59:37;;;;;;;71.97;25.05;;;12.40;99.90;;;;;;7404027;19;19932;-85
2022/10/14 01:02:03;;;;;;;56.65;23.30;;;12.30;99.90;;;;;;7402346;19;19918;-84
2022/10/14 01:04:29;;;;;;;60.83;26.00;;;12.40;99.90;;;;;;7404278;19;19928;-86
2022/10/14 01:07:15;;;;;;;110.93;29.48;;;12.40;99.90;;;;;;7402606;19;19918;-84
2022/10/14 01:10:07;;;;;;;50.92;23.08;;;12.30;99.90;;;;;;7403060;19;20569;-84
2022/10/14 01:12:52;;;;;;;44.92;21.65;;;12.30;99.90;;;;;;7402207;19;19925;-85
2022/10/14 01:15:39;;;;;;;94.15;24.08;;;12.40;99.90;;;;;;7405483;19;19945;-84
2022/10/14 01:18:18;;;;;;;71.85;23.63;;;12.30;99.90;;;;;;7407501;19;19919;-84
2022/10/14 01:21:18;;;;;;;171.82;32.50;;;12.40;99.90;;;;;;7403168;19;20252;-85
2022/10/14 01:24:04;;;;;;;46.05;17.30;;;12.30;99.90;;;;;;7404015;19;19929;-84
2022/10/14 01:26:59;;;;;;;111.75;24.60;;;12.40;99.90;;;;;;7408024;19;19918;-84
2022/10/14 01:30:07;;;;;;;135.65;26.08;;;12.50;99.90;;;;;;7401058;19;19914;-84
2022/10/14 01:32:35;;;;;;;48.60;18.77;;;12.50;99.90;;;;;;7402824;19;19914;-84
2022/10/14 01:35:10;;;;;;;54.20;17.58;;;12.50;99.90;;;;;;7401806;19;19915;-85
2022/10/14 01:37:45;;;;;;;127.88;23.90;;;12.50;99.90;;;;;;7406329;19;20328;-85
2022/10/14 01:40:35;;;;;;;171.88;26.65;;;12.40;99.90;;;;;;7403267;19;19922;-84
2022/10/14 01:43:03;;;;;;;120.00;25.60;;;12.30;99.90;;;;;;7402071;19;19915;-84
2022/10/14 01:45:35;;;;;;;122.65;25.75;;;12.20;99.90;;;;;;7404056;19;19922;-85
2022/10/14 01:48:03;;;;;;;196.07;31.00;;;12.10;99.90;;;;;;7406852;19;20305;-84
2022/10/14 01:50:33;;;;;;;179.63;26.40;;;12.00;99.90;;;;;;7402300;19;19975;-84
2022/10/14 01:53:03;;;;;;;97.15;18.83;;;12.10;99.90;;;;;;7400314;19;20333;-84
2022/10/14 01:55:34;;;;;;;178.73;23.88;;;12.00;99.90;;;;;;7400466;19;20325;-84
2022/10/14 01:58:00;;;;;;;80.50;18.85;;;12.00;99.90;;;;;;7399957;19;19925;-84
2022/10/14 02:00:26;;;;;;;186.32;27.30;;;11.90;99.90;;;;;;7404744;19;19922;-84
2022/10/14 02:02:52;;;;;;;95.05;21.85;;;11.90;99.90;;;;;;7400684;19;19931;-84
2022/10/14 02:05:34;;;;;;;68.13;18.80;;;11.90;99.90;;;;;;7402936;19;20677;-85
2022/10/14 02:08:15;;;;;;;232.15;32.33;;;11.90;99.90;;;;;;7401940;19;19914;-84
2022/10/14 02:10:59;;;;;;;165.13;24.98;;;11.90;99.90;;;;;;7400419;19;19942;-85
2022/10/14 02:13:47;;;;;;;218.95;29.80;;;11.80;99.90;;;;;;7400986;19;20278;-83
2022/10/14 02:16:32;;;;;;;207.00;23.85;;;11.80;99.90;;;;;;7401668;19;19941;-85
2022/10/14 02:19:31;;;;;;;255.27;30.40;;;11.70;99.90;;;;;;7407699;19;19915;-85
2022/10/14 02:22:00;;;;;;;90.00;20.20;;;11.60;99.90;;;;;;7408228;19;19941;-85
2022/10/14 02:24:34;;;;;;;209.65;29.50;;;11.60;99.90;;;;;;7293174;19;19926;-85
2022/10/14 02:27:04;;;;;;;144.85;24.17;;;11.60;99.90;;;;;;7179493;19;3009725;-85
2022/10/14 02:29:32;;;;;;;219.50;27.98;;;11.60;99.90;;;;;;7245856;19;111147;-86
2022/10/14 02:33:02;;;;;;;211.07;29.35;;;11.60;99.90;;;;;;7440075;19;20450;-83
2022/10/14 02:35:33;;;;;;;193.10;24.92;;;11.70;99.90;;;;;;7442904;19;19911;-83
2022/10/14 02:38:03;;;;;;;187.82;24.80;;;11.70;99.90;;;;;;7439506;19;19921;-84
2022/10/14 02:40:39;;;;;;;183.93;23.65;;;11.70;99.90;;;;;;7442286;19;19923;-83
2022/10/14 02:43:09;;;;;;;256.42;30.58;;;11.70;99.90;;;;;;7439638;19;20332;-83
2022/10/14 02:45:39;;;;;;;127.30;22.95;;;11.60;99.90;;;;;;7439270;19;19915;-84
2022/10/14 02:48:11;;;;;;;123.78;20.52;;;11.60;99.90;;;;;;7440335;19;19921;-84
2022/10/14 02:50:41;;;;;;;220.75;28.40;;;11.50;99.90;;;;;;7442318;19;19919;-84
2022/10/14 02:53:10;;;;;;;210.73;30.73;;;11.60;99.90;;;;;;7438514;19;20332;-83
2022/10/14 02:55:38;;;;;;;133.88;22.88;;;11.50;99.90;;;;;;7439575;19;19922;-83
2022/10/14 02:58:07;;;;;;;230.70;28.05;;;11.60;99.90;;;;;;7439057;19;19947;-84
2022/10/14 03:00:37;;;;;;;160.18;24.58;;;11.50;99.90;;;;;;7439639;19;19935;-83
2022/10/14 03:03:06;;;;;;;149.18;24.30;;;11.50;99.90;;;;;;7440942;19;19922;-84
2022/10/14 03:05:38;;;;;;;266.60;31.23;;;11.50;99.90;;;;;;7440316;19;19931;-84
2022/10/14 03:08:07;;;;;;;89.05;15.63;;;11.40;99.90;;;;;;7436114;19;19989;-84
2022/10/14 03:10:35;;;;;;;142.27;20.23;;;11.40;99.90;;;;;;7439354;19;19981;-83
2022/10/14 03:13:04;;;;;;;151.27;21.90;;;11.40;99.90;;;;;;7436230;19;20396;-84
2022/10/14 03:15:33;;;;;;;63.67;14.20;;;11.30;99.90;;;;;;7437514;19;19946;-84
2022/10/14 03:18:02;;;;;;;100.75;16.63;;;11.30;99.90;;;;;;7438594;19;19926;-83
2022/10/14 03:20:31;;;;;;;145.85;18.55;;;11.30;99.90;;;;;;7439659;19;20272;-83
2022/10/14 03:23:03;;;;;;;122.88;17.90;;;11.30;99.90;;;;;;7440022;19;19922;-83
2022/10/14 03:25:33;;;;;;;165.23;23.60;;;11.30;99.90;;;;;;7439010;19;19955;-83
2022/10/14 03:28:02;;;;;;;224.75;25.48;;;11.30;99.90;;;;;;7438962;19;19923;-84
2022/10/14 03:30:31;;;;;;;104.22;15.00;;;11.30;99.90;;;;;;7436353;19;19915;-83
2022/10/14 03:33:00;;;;;;;165.82;21.73;;;11.20;99.90;;;;;;7431991;19;20306;-83
2022/10/14 03:35:29;;;;;;;80.70;14.75;;;11.20;99.90;;;;;;7438363;19;19918;-83
2022/10/14 03:38:01;;;;;;;57.63;12.13;;;11.20;99.90;;;;;;7435947;19;20351;-84
2022/10/14 03:40:33;;;;;;;155.18;21.05;;;11.10;99.90;;;;;;7440532;19;19982;-83
2022/10/14 03:43:02;;;;;;;191.23;23.58;;;11.10;99.90;;;;;;7423972;19;19925;-84
2022/10/14 03:45:31;;;;;;;117.72;16.52;;;11.10;99.90;;;;;;7409451;19;19926;-84
2022/10/14 03:48:00;;;;;;;130.95;18.58;;;11.10;99.90;;;;;;7412271;19;19927;-84
2022/10/14 03:50:30;;;;;;;115.47;15.60;;;11.10;99.90;;;;;;7411044;19;19925;-84
2022/10/14 03:52:59;;;;;;;;;;;11.10;99.90;;;;;;7413462;19;19911;-84
2022/10/14 03:55:28;;;;;;;;;;;11.10;99.90;;;;;;7410766;19;19937;-83
2022/10/14 03:58:00;;;;;;;92.80;12.90;;;11.10;99.90;;;;;;7410500;19;19918;-84
2022/10/14 04:00:29;;;;;;;106.82;15.32;;;11.10;99.90;;;;;;7411371;19;19914;-83
2022/10/14 04:02:57;;;;;;;125.88;16.00;;;11.10;99.90;;;;;;7411334;19;19933;-84
2022/10/14 04:05:31;;;;;;;134.13;16.25;;;11.10;99.90;;;;;;7411534;19;19925;-84
2022/10/14 04:08:00;;;;;;;53.20;8.63;;;11.10;99.90;;;;;;7409207;19;19922;-84
2022/10/14 04:10:29;;;;;;;44.15;8.98;;;11.10;99.90;;;;;;7408604;19;19932;-84
2022/10/14 04:13:00;;;;;;;63.83;8.25;;;11.10;99.90;;;;;;7404450;19;19990;-85
2022/10/14 04:15:30;;;;;;;39.20;7.30;;;11.00;99.90;;;;;;7405942;19;19940;-84
2022/10/14 04:17:58;;;;;;;33.38;7.38;;;11.00;99.90;;;;;;7408591;19;19919;-85
2022/10/14 04:20:27;;;;;;;71.47;8.65;;;11.00;99.90;;;;;;7406613;19;19915;-84
2022/10/14 04:22:56;;;;;;;124.95;12.15;;;11.00;99.90;;;;;;7406298;19;19921;-84
2022/10/14 04:25:25;;;;;;;82.88;9.18;;;10.90;99.90;;;;;;7409173;19;19926;-84
2022/10/14 04:27:54;;;;;;;40.70;7.63;;;10.90;99.90;;;;;;7409425;19;19914;-84
2022/10/14 04:30:25;;;;;;;39.72;7.40;;;10.90;99.90;;;;;;7408822;19;19930;-84
2022/10/14 04:32:54;;;;;;;45.00;7.85;;;10.90;99.90;;;;;;7408033;19;19956;-84
2022/10/14 04:35:23;;;;;;;63.78;10.27;;;10.90;99.90;;;;;;7407829;19;19926;-84
2022/10/14 04:37:52;;;;;;;27.80;7.70;;;10.90;99.90;;;;;;7408146;19;19941;-85
2022/10/14 04:40:24;;;;;;;32.80;7.32;;;10.80;99.90;;;;;;7408095;19;19918;-85
2022/10/14 04:42:56;;;;;;;64.68;12.43;;;10.90;99.90;;;;;;7408305;19;20399;-84
2022/10/14 04:45:28;;;;;;;43.63;8.98;;;10.90;99.90;;;;;;7410032;19;20274;-83
2022/10/14 04:47:57;;;;;;;94.90;14.65;;;10.90;99.90;;;;;;7405252;19;19930;-84
2022/10/14 04:50:26;;;;;;;44.15;10.75;;;10.90;99.90;;;;;;7407319;19;20360;-84
2022/10/14 04:52:55;;;;;;;54.30;11.77;;;11.00;99.90;;;;;;7405560;19;19919;-86
2022/10/14 04:55:24;;;;;;;21.45;7.88;;;11.00;99.90;;;;;;7405908;19;19935;-84
2022/10/14 04:57:53;;;;;;;27.30;7.43;;;11.00;99.90;;;;;;7408116;19;19915;-84
2022/10/14 05:00:22;;;;;;;38.05;7.93;;;11.10;99.90;;;;;;7408194;19;20288;-84
2022/10/14 05:02:53;;;;;;;43.22;8.90;;;11.20;99.90;;;;;;7406704;19;19974;-84
2022/10/14 05:05:22;;;;;;;40.00;8.57;;;11.10;99.90;;;;;;7406505;19;20316;-84
2022/10/14 05:07:51;;;;;;;68.90;8.50;;;11.10;99.90;;;;;;7407537;19;20321;-84
2022/10/14 05:10:20;;;;;;;40.03;8.80;;;11.10;99.90;;;;;;7405973;19;19974;-84
2022/10/14 05:12:50;;;;;;;43.95;8.63;;;11.10;99.90;;;;;;7405329;19;19982;-84
2022/10/14 05:15:19;;;;;;;24.52;5.93;;;11.10;99.90;;;;;;7404681;19;19918;-84
2022/10/14 05:17:48;;;;;;;40.92;8.18;;;11.20;99.90;;;;;;7407525;19;20308;-84
2022/10/14 05:20:19;;;;;;;18.58;7.30;;;11.20;99.90;;;;;;7406275;19;19926;-84
2022/10/14 05:22:48;;;;;;;18.00;7.72;;;11.20;99.90;;;;;;7405793;19;19930;-83
2022/10/14 05:25:17;;;;;;;24.83;7.40;;;11.20;99.90;;;;;;7406302;19;19918;-84
2022/10/14 05:27:46;;;;;;;11.63;6.35;;;11.30;99.90;;;;;;7405719;19;19946;-84
2022/10/14 05:30:16;;;;;;;23.45;8.23;;;11.30;99.90;;;;;;7405744;19;19918;-84
2022/10/14 05:32:45;;;;;;;21.33;8.30;;;11.30;99.90;;;;;;7406493;19;19921;-84
2022/10/14 05:35:14;;;;;;;23.23;6.82;;;11.30;99.90;;;;;;7408246;19;19922;-84
2022/10/14 05:37:45;;;;;;;31.35;9.50;;;11.40;99.90;;;;;;7403319;19;19923;-84
2022/10/14 05:40:14;;;;;;;30.70;8.73;;;11.30;99.90;;;;;;7409316;19;20329;-84
2022/10/14 05:42:44;;;;;;;31.52;9.07;;;11.30;99.90;;;;;;7405407;19;19921;-83
2022/10/14 05:45:13;;;;;;;29.20;9.52;;;11.30;99.90;;;;;;7409708;19;20358;-84
2022/10/14 05:47:44;;;;;;;31.15;8.27;;;11.30;99.90;;;;;;7406167;19;20294;-83
2022/10/14 05:50:13;;;;;;;21.63;8.82;;;11.30;99.90;;;;;;7409356;19;19926;-84
2022/10/14 05:52:45;;;;;;;23.35;8.70;;;11.30;99.90;;;;;;7404821;19;19918;-84
2022/10/14 05:55:17;;;;;;;26.50;7.25;;;11.30;99.90;;;;;;7407409;19;20336;-84
2022/10/14 05:57:46;;;;;;;20.38;5.75;;;11.30;99.90;;;;;;7408567;19;20239;-84
2022/10/14 06:00:18;;;;;;;21.95;7.70;;;11.30;99.90;;;;;;7405189;19;19933;-84
2022/10/14 06:02:46;;;;;;;25.38;7.50;;;11.30;99.90;;;;;;7406699;19;19915;-84
2022/10/14 06:05:16;;;;;;;33.97;9.50;;;11.30;99.90;;;;;;7404586;19;19915;-84
2022/10/14 06:07:47;;;;;;;29.95;10.10;;;11.40;99.90;;;;;;7404392;19;19974;-84
2022/10/14 06:10:22;;;;;;;27.23;10.73;;;11.30;99.90;;;;;;7404834;19;19924;-90
2022/10/14 06:13:14;;;;;;;293.45;33.88;;;11.30;99.90;;;;;;7404285;19;19911;-83
2022/10/14 06:15:43;;;;;;;24.90;9.82;;;11.30;99.90;;;;;;7404841;19;20324;-84
2022/10/14 06:18:12;;;;;;;30.38;11.82;;;11.40;99.90;;;;;;7404464;19;19923;-84
2022/10/14 06:20:41;;;;;;;31.35;12.55;;;11.40;99.90;;;;;;7406654;19;19926;-85
2022/10/14 06:23:13;;;;;;;33.13;11.30;;;11.40;99.90;;;;;;7406484;19;19918;-83
2022/10/14 06:25:41;;;;;;;35.78;12.98;;;11.40;99.90;;;;;;7404237;19;19919;-84
2022/10/14 06:28:10;;;;;;;110.03;17.30;;;11.40;99.90;;;;;;7404409;19;19946;-84
2022/10/14 06:30:39;;;;;;;33.33;12.82;;;11.40;99.90;;;;;;7403370;19;19938;-84
2022/10/14 06:33:08;;;;;;;26.25;10.45;;;11.40;99.90;;;;;;7402631;19;19923;-84
2022/10/14 06:35:37;;;;;;;30.30;11.48;;;11.40;99.90;;;;;;7405705;19;19918;-83
2022/10/14 06:38:06;;;;;;;32.05;11.85;;;11.50;99.90;;;;;;7404506;19;20253;-83
2022/10/14 06:40:38;;;;;;;32.30;11.90;;;11.50;99.90;;;;;;7402293;19;20276;-84
2022/10/14 06:43:08;;;;;;;31.52;11.32;;;11.50;99.90;;;;;;7405067;19;20280;-84
2022/10/14 06:45:36;;;;;;;38.10;13.15;;;11.50;99.90;;;;;;7402422;19;19922;-83
2022/10/14 06:48:06;;;;;;;31.23;10.82;;;11.50;99.90;;;;;;7402792;19;19926;-83
2022/10/14 06:50:35;;;;;;;28.48;11.82;;;11.50;99.90;;;;;;7405306;19;19942;-83
2022/10/14 06:53:04;;;;;;;24.77;10.23;;;11.50;99.90;;;;;;7401551;19;19919;-84
2022/10/14 06:55:33;;;;;;;31.80;13.70;;;11.50;99.90;;;;;;7401903;19;19931;-84
2022/10/14 06:58:04;;;;;;;29.20;9.65;;;11.50;99.90;;;;;;7403986;19;19925;-83
2022/10/14 07:00:33;;;;;;;28.55;12.63;;;11.50;99.90;;;;;;7403647;19;19922;-84
2022/10/14 07:03:02;;;;;;;32.55;13.25;;;11.50;99.90;;;;;;7403814;19;19939;-83
2022/10/14 07:05:31;;;;;;;29.45;12.63;;;11.60;99.90;;;;;;7404518;19;20313;-83
2022/10/14 07:08:00;;;;;;;35.78;13.30;;;11.60;99.90;;;;;;7404268;19;19934;-83
2022/10/14 07:10:29;;;;;;;31.50;13.00;;;11.70;99.90;;;;;;7402569;19;19918;-84
2022/10/14 07:12:58;;;;;;;26.85;12.70;;;11.70;99.90;;;;;;7400782;19;19914;-84
2022/10/14 07:15:29;;;;;;;25.05;11.32;;;11.90;99.90;;;;;;7402963;19;19938;-84
2022/10/14 07:18:00;;;;;;;26.38;12.77;;;12.60;99.90;;;;;;7404424;19;19918;-83
2022/10/14 07:20:29;;;;;;;22.85;11.38;;;13.50;99.90;;;;;;7409037;19;19918;-84
2022/10/14 07:22:58;;;;;;;25.23;11.88;;;13.80;99.90;;;;;;7408858;19;19915;-83
2022/10/14 07:25:27;;;;;;;21.92;9.95;;;13.90;99.90;;;;;;7409758;19;19919;-84
2022/10/14 07:27:56;;;;;;;26.58;12.82;;;13.80;99.90;;;;;;7409534;19;19926;-84
2022/10/14 07:30:25;;;;;;;23.05;10.38;;;13.60;99.90;;;;;;7412396;19;19946;-84
2022/10/14 07:32:57;;;;;;;22.88;11.93;;;13.40;99.90;;;;;;7406871;19;19918;-84
2022/10/14 07:35:26;;;;;;;27.77;11.63;;;13.10;99.90;;;;;;7412228;19;20382;-83
2022/10/14 07:37:55;;;;;;;29.40;11.23;;;12.80;99.90;;;;;;7411387;19;19974;-84
2022/10/14 07:40:24;;;;;;;22.92;10.63;;;12.70;99.90;;;;;;7411031;19;19918;-83
2022/10/14 07:42:53;;;;;;;25.75;13.75;;;12.60;99.90;;;;;;7408612;19;19921;-83
2022/10/14 07:45:23;;;;;;;23.95;11.77;;;12.50;99.90;;;;;;7408314;19;19970;-83
2022/10/14 07:47:52;;;;;;;23.42;12.85;;;12.40;99.90;;;;;;7409772;19;20419;-83
2022/10/14 07:50:24;;;;;;;24.15;10.70;;;12.30;99.90;;;;;;7411448;19;20272;-83
2022/10/14 07:52:53;;;;;;;25.63;11.48;;;12.30;99.90;;;;;;7408806;19;19957;-84
2022/10/14 07:55:22;;;;;;;23.55;12.07;;;12.20;99.90;;;;;;7408818;19;20419;-83
2022/10/14 07:57:51;;;;;;;27.33;12.32;;;12.20;99.90;;;;;;7408044;19;19932;-84
2022/10/14 08:00:20;;;;;;;23.83;11.73;;;12.20;99.90;;;;;;7410218;19;19919;-83
2022/10/14 08:02:49;;;;;;;25.42;12.55;;;12.20;99.90;;;;;;7408975;19;19918;-84
2022/10/14 08:05:18;;;;;;;23.15;11.93;;;12.10;99.90;;;;;;7409118;19;19914;-84
2022/10/14 08:07:50;;;;;;;25.52;14.52;;;12.10;99.90;;;;;;7407393;19;19978;-84
2022/10/14 08:10:19;;;;;;;20.65;10.35;;;12.10;99.90;;;;;;7405378;19;20344;-84
2022/10/14 08:12:48;;;;;;;23.92;11.68;;;12.10;99.90;;;;;;7406582;19;19931;-84
2022/10/14 08:15:17;;;;;;;24.67;13.43;;;12.10;99.90;;;;;;7408646;19;19930;-84
2022/10/14 08:17:46;;;;;;;23.77;12.35;;;12.00;99.90;;;;;;7409231;19;19946;-84
2022/10/14 08:20:15;;;;;;;21.48;11.05;;;12.00;99.90;;;;;;7408484;19;19922;-84
2022/10/14 08:22:44;;;;;;;21.85;11.35;;;12.10;99.90;;;;;;7407380;19;20313;-84
2022/10/14 08:25:15;;;;;;;26.02;13.15;;;12.10;99.90;;;;;;7406377;19;19918;-84
2022/10/14 08:27:44;;;;;;;25.58;13.23;;;12.10;99.90;;;;;;7410713;19;19941;-84
2022/10/14 08:30:14;;;;;;;19.80;10.77;;;12.10;99.90;;;;;;7406069;19;19915;-85
2022/10/14 08:32:43;;;;;;;22.67;12.52;;;12.10;99.90;;;;;;7405320;19;19914;-84
2022/10/14 08:35:13;;;;;;;25.33;10.77;;;12.20;99.90;;;;;;7408619;19;19926;-84
2022/10/14 08:37:42;;;;;;;23.80;9.90;;;12.10;99.90;;;;;;7407920;19;19938;-84
2022/10/14 08:40:19;;;;;;;20.20;8.52;;;12.10;99.90;;;;;;7407359;19;20303;-84
2022/10/14 08:42:54;;;;;;;20.27;9.80;;;12.20;99.90;;;;;;7406931;19;20345;-84
2022/10/14 08:45:32;;;;;;;21.45;10.40;;;12.30;99.90;;;;;;7408313;19;20344;-84
2022/10/14 08:48:05;;;;;;;19.02;9.98;;;12.40;99.90;;;;;;7405760;19;19922;-84
2022/10/14 08:50:40;;;;;;;22.10;10.65;;;12.40;99.90;;;;;;7408463;19;19922;-84
2022/10/14 08:53:14;;;;;;;21.55;9.77;;;12.50;99.90;;;;;;7406054;19;19954;-84
2022/10/14 08:55:47;;;;;;;18.30;10.50;;;12.60;99.90;;;;;;7405739;19;20258;-84
2022/10/14 08:58:22;;;;;;;19.88;10.38;;;12.60;99.90;;;;;;7409577;19;19914;-84
2022/10/14 09:00:53;;;;;;;21.20;10.98;;;12.70;99.90;;;;;;7406453;19;19922;-85
2022/10/14 09:03:35;;;;;;;20.38;11.02;;;12.70;99.90;;;;;;7407284;19;19953;-84
2022/10/14 09:06:08;;;;;;;20.85;10.68;;;12.80;99.90;;;;;;7407105;19;19980;-85
2022/10/14 09:08:41;;;;;;;18.75;9.88;;;12.80;99.90;;;;;;7408021;19;19914;-84
2022/10/14 09:11:16;;;;;;;21.85;9.73;;;12.90;99.90;;;;;;7407365;19;19922;-84
2022/10/14 09:13:48;;;;;;;24.02;10.32;;;13.00;99.90;;;;;;7405807;19;20399;-84
2022/10/14 09:16:21;;;;;;;20.35;10.68;;;13.00;99.90;;;;;;7406959;19;19919;-84
2022/10/14 09:18:59;;;;;;;17.58;9.65;;;13.00;99.90;;;;;;7406869;19;19914;-84
2022/10/14 09:21:34;;;;;;;23.25;10.65;;;13.00;99.90;;;;;;7408496;19;19926;-84
2022/10/14 09:24:12;;;;;;;20.95;11.25;;;13.10;99.90;;;;;;7407536;19;19939;-84
2022/10/14 09:26:45;;;;;;;17.27;9.10;;;13.10;99.90;;;;;;7403543;19;19933;-84
2022/10/14 09:29:24;;;;;;;23.63;11.40;;;13.10;99.90;;;;;;7406739;19;19939;-85
2022/10/14 09:31:54;;;;;;;20.85;9.88;;;13.10;99.90;;;;;;7399572;19;20281;-85
2022/10/14 09:34:31;;;;;;;20.85;10.65;;;13.20;99.90;;;;;;7373646;19;19934;-85
2022/10/14 09:37:17;;;;;;;25.85;11.43;;;13.30;99.90;;;;;;7379438;19;19914;-84
2022/10/14 09:39:47;;;;;;;22.40;11.00;;;13.40;99.90;;;;;;7408118;19;19922;-84
2022/10/14 09:42:21;;;;;;;23.80;12.27;;;13.50;99.90;;;;;;7402970;19;20346;-84
2022/10/14 09:45:07;;;;;;;24.02;10.65;;;13.50;99.90;;;;;;7405515;19;19926;-84
2022/10/14 09:47:43;;;;;;;22.88;12.27;;;13.50;99.90;;;;;;7407451;19;19919;-85
2022/10/14 09:50:22;;;;;;;20.35;11.40;;;13.50;99.90;;;;;;7407488;19;19922;-84
2022/10/14 09:52:54;;;;;;;21.38;11.15;;;13.50;99.90;;;;;;7403817;19;19922;-84
2022/10/14 09:55:25;;;;;;;24.23;11.88;;;13.60;99.90;;;;;;7404329;19;19974;-84
2022/10/14 09:58:08;;;;;;;19.55;10.38;;;13.70;99.90;;;;;;7407363;19;19946;-84
2022/10/14 10:00:41;;;;;;;21.10;10.65;;;13.70;99.90;;;;;;7405445;19;19929;-84
2022/10/14 10:03:27;;;;;;;22.70;12.25;;;13.70;99.90;;;;;;7404811;19;19939;-84
2022/10/14 10:06:04;;;;;;;22.60;10.93;;;13.70;99.90;;;;;;7399257;19;20280;-84
2022/10/14 10:08:35;;;;;;;19.58;9.73;;;13.70;99.90;;;;;;7404510;19;20276;-83
2022/10/14 10:11:09;;;;;;;22.13;11.18;;;13.70;99.90;;;;;;7406096;19;20332;-84
2022/10/14 10:13:47;;;;;;;20.90;11.95;;;13.70;99.90;;;;;;7402684;19;20002;-84
2022/10/14 10:16:24;;;;;;;18.25;9.68;;;13.70;99.90;;;;;;7400392;19;20010;-84
2022/10/14 10:18:56;;;;;;;24.77;11.52;;;13.70;99.90;;;;;;7394842;19;20011;-84
2022/10/14 10:21:28;;;;;;;24.80;12.55;;;13.90;99.90;;;;;;7407385;19;19922;-94
2022/10/14 10:24:00;;;;;;;21.65;10.45;;;13.90;99.90;;;;;;7407324;19;20266;-89
2022/10/14 10:26:32;;;;;;;26.40;12.45;;;14.00;99.90;;;;;;7401723;19;20256;-87
2022/10/14 10:29:06;;;;;;;24.15;11.82;;;13.90;99.90;;;;;;7406335;19;19915;-92
2022/10/14 10:31:50;;;;;;;22.75;11.73;;;13.90;99.90;;;;;;7404615;19;19923;-88
2022/10/14 10:34:45;;;;;;;26.65;15.05;;;13.90;99.90;;;;;;7404618;19;19920;-91
2022/10/14 10:37:25;;;;;;;25.42;13.32;;;13.80;99.90;;;;;;7406042;19;19937;-88
2022/10/14 10:40:21;;;;;;;25.60;13.68;;;13.80;99.90;;;;;;7403916;19;20336;-90
2022/10/14 10:43:01;;;;;;;29.42;14.60;;;13.70;99.90;;;;;;7404341;19;19931;-88
2022/10/14 10:45:44;;;;;;;31.80;15.48;;;13.70;99.90;;;;;;7403536;19;19918;-87
2022/10/14 10:48:21;;;;;;;31.35;14.90;;;13.60;99.90;;;;;;7393371;19;20024;-90
2022/10/14 10:50:56;;;;;;;;;;;13.60;99.90;;;;;;7409590;19;19922;-88
2022/10/14 10:53:38;;;;;;;30.83;14.25;;;13.60;99.90;;;;;;7405131;19;20282;-86
2022/10/14 10:56:22;;;;;;;34.70;15.82;;;13.60;99.90;;;;;;7410093;19;20562;-86
2022/10/14 10:59:07;;;;;;;29.40;15.65;;;13.60;99.90;;;;;;7415362;19;19922;-87
2022/10/14 11:01:50;;;;;;;26.40;13.20;;;13.70;99.90;;;;;;7409048;19;19918;-94
2022/10/14 11:04:34;;;;;;;31.70;14.30;;;13.70;99.90;;;;;;7412429;19;20325;-95
2022/10/14 11:12:54;;;;;;;31.25;13.45;;;13.80;99.90;;;;;;7408021;19;19915;-84
2022/10/14 11:15:40;;;;;;;39.22;16.08;;;13.70;99.90;;;;;;7409034;19;19918;-87
2022/10/14 11:18:19;;;;;;;37.55;16.27;;;13.70;99.90;;;;;;7411681;19;19955;-88
2022/10/14 11:21:02;;;;;;;36.70;16.05;;;13.70;99.90;;;;;;7406266;19;19930;-89
2022/10/14 11:23:58;;;;;;;35.78;15.77;;;13.70;99.90;;;;;;7413731;19;19921;-87
2022/10/14 11:26:57;;;;;;;33.90;15.80;;;13.70;99.90;;;;;;7409049;19;19918;-87
2022/10/14 11:30:00;;;;;;;39.88;15.32;;;13.60;99.90;;;;;;7411607;19;19918;-87
2022/10/14 11:32:45;;;;;;;36.97;15.60;;;13.60;99.90;;;;;;7407645;19;20335;-87
2022/10/14 11:35:27;;;;;;;38.15;14.95;;;13.60;99.90;;;;;;7406994;19;19981;-87
2022/10/14 11:38:09;;;;;;;41.13;15.90;;;13.50;99.90;;;;;;7410292;19;19919;-88
2022/10/14 11:40:48;;;;;;;40.45;16.85;;;13.50;99.90;;;;;;7411314;19;19914;-88
2022/10/14 11:43:27;;;;;;;36.33;15.77;;;13.50;99.90;;;;;;7405081;19;19923;-88
2022/10/14 11:46:01;;;;;;;43.00;17.70;;;13.50;99.90;;;;;;7410904;19;19974;-88
2022/10/14 11:48:41;;;;;;;41.75;17.02;;;13.40;99.90;;;;;;7409015;19;20255;-89
2022/10/14 11:51:20;;;;;;;38.42;17.13;;;13.50;99.90;;;;;;7406864;19;19923;-87
2022/10/14 11:57:41;;;;;;;43.33;16.98;;;13.50;99.90;;;;;;7401714;19;19922;-87
2022/10/14 12:00:15;;;;;;;43.97;19.50;;;13.50;99.90;;;;;;7401772;19;20262;-88
2022/10/14 12:02:54;;;;;;;43.67;19.05;;;13.50;99.90;;;;;;7408357;19;20297;-88
2022/10/14 12:05:31;;;;;;;43.42;18.40;;;13.50;99.90;;;;;;7401977;19;20044;-87
2022/10/14 12:08:15;;;;;;;43.75;18.80;;;13.50;99.90;;;;;;7407435;19;20387;-85
2022/10/14 12:10:47;;;;;;;44.38;19.48;;;13.50;99.90;;;;;;7406906;19;19918;-86
2022/10/14 12:13:19;;;;;;;41.92;16.58;;;13.60;99.90;;;;;;7408054;19;19921;-85
2022/10/14 12:15:51;;;;;;;46.53;18.45;;;13.60;99.90;;;;;;7400034;19;20291;-87
2022/10/14 12:18:21;;;;;;;44.60;18.00;;;13.60;99.90;;;;;;7410588;19;19914;-88
2022/10/14 12:20:57;;;;;;;43.95;18.30;;;13.60;99.90;;;;;;7407787;19;19922;-89
2022/10/14 12:23:36;;;;;;;48.38;20.15;;;13.70;99.90;;;;;;7408295;19;19985;-89
2022/10/14 12:26:16;;;;;;;44.60;18.25;;;13.70;99.90;;;;;;7404711;19;19930;-89
2022/10/14 12:28:46;;;;;;;33.20;14.18;;;13.60;99.90;;;;;;7407884;19;19915;-89
2022/10/14 12:31:34;;;;;;;40.70;17.38;;;13.60;99.90;;;;;;7407301;19;19942;-89
2022/10/14 12:34:27;;;;;;;38.03;16.50;;;13.60;99.90;;;;;;7406394;19;19982;-89
2022/10/14 12:36:56;;;;;;;36.75;18.33;;;13.60;99.90;;;;;;7406353;19;20323;-89
2022/10/14 12:39:34;;;;;;;39.17;16.27;;;13.60;99.90;;;;;;7407095;19;19986;-89
2022/10/14 12:42:05;;;;;;;28.77;13.02;;;13.60;99.90;;;;;;7407054;19;20547;-89
2022/10/14 12:44:46;;;;;;;40.80;17.40;;;13.60;99.90;;;;;;7409459;19;19950;-89
2022/10/14 12:47:22;;;;;;;34.67;17.00;;;13.60;99.90;;;;;;7398251;19;20347;-89
2022/10/14 12:49:54;;;;;;;;;;;13.60;99.90;;;;;;7413608;19;19925;-89
2022/10/14 12:52:27;;;;;;;39.05;15.90;;;13.70;99.90;;;;;;7399551;19;20475;-90
2022/10/14 12:55:03;;;;;;;35.58;16.58;;;13.70;99.90;;;;;;7401110;19;19930;-89
2022/10/14 12:57:34;;;;;;;40.15;18.60;;;13.70;99.90;;;;;;7409803;19;19925;-90
2022/10/14 13:00:08;;;;;;;44.97;20.95;;;13.80;99.90;;;;;;7403938;19;19926;-89
2022/10/14 13:02:40;;;;;;;39.67;18.73;;;13.80;99.90;;;;;;7403859;19;19930;-89
2022/10/14 13:05:23;;;;;;;48.45;18.85;;;13.90;99.90;;;;;;7407712;19;19914;-88
2022/10/14 13:08:13;;;;;;;47.53;21.08;;;13.90;99.90;;;;;;7407020;19;19922;-86